Time;durP1;ratioP1;P1;durP2;ratioP2;P2;SDS_P1;SDS_P2;PMS_P1;PMS_P2;Temp;Humidity;BMP_temperature;BMP_pressure;BME280_temperature;BME280_humidity;BME280_pressure;Samples;Min_cycle;Max_cycle;Signal;HPM_P1;HPM_P2
2023/08/31 00:01:09;;;;;;;5.15;2.83;;;;;;;11.75;100.00;100749.00;5079167;28;20029;-76
2023/08/31 00:03:35;;;;;;;6.75;2.88;;;;;;;11.72;100.00;100744.88;5079777;28;20064;-76
2023/08/31 00:06:07;;;;;;;5.22;2.58;;;;;;;11.72;100.00;100758.25;5079730;28;20032;-76
2023/08/31 00:08:33;;;;;;;4.68;2.47;;;;;;;11.63;100.00;100751.44;5078629;28;20036;-76
2023/08/31 00:11:00;;;;;;;5.53;2.97;;;;;;;11.64;100.00;100753.13;5078309;28;20032;-76
2023/08/31 00:13:26;;;;;;;4.65;3.10;;;;;;;11.63;100.00;100759.47;5079389;28;20024;-76
2023/08/31 00:15:57;;;;;;;7.90;3.40;;;;;;;11.62;100.00;100755.97;5062654;28;20029;-76
2023/08/31 00:18:24;;;;;;;5.60;3.20;;;;;;;11.60;100.00;100758.03;5080547;28;20028;-76
2023/08/31 00:20:49;;;;;;;5.30;3.25;;;;;;;11.56;100.00;100750.66;5080580;28;20035;-76
2023/08/31 00:23:15;;;;;;;5.07;3.08;;;;;;;11.55;100.00;100757.84;5064044;28;20056;-76
2023/08/31 00:25:43;;;;;;;5.15;3.15;;;;;;;11.53;100.00;100745.72;5077098;28;20028;-76
2023/08/31 00:28:09;;;;;;;5.47;3.70;;;;;;;11.52;100.00;100750.22;5079575;28;20032;-76
2023/08/31 00:30:34;;;;;;;7.15;3.20;;;;;;;11.50;100.00;100746.13;5077436;28;20020;-76
2023/08/31 00:33:00;;;;;;;7.28;4.15;;;;;;;11.49;100.00;100750.63;5076852;28;20033;-76
2023/08/31 00:35:29;;;;;;;6.95;4.00;;;;;;;11.47;100.00;100746.53;5081103;28;20024;-77
2023/08/31 00:37:58;;;;;;;6.10;3.47;;;;;;;11.42;100.00;100744.47;5079483;28;20028;-76
2023/08/31 00:40:25;;;;;;;7.15;4.85;;;;;;;11.45;100.00;100756.59;5078734;28;20082;-76
2023/08/31 00:42:51;;;;;;;6.65;3.83;;;;;;;11.39;100.00;100750.22;5069400;28;20518;-76
2023/08/31 00:45:17;;;;;;;6.85;4.20;;;;;;;11.37;100.00;100753.13;5077471;28;20069;-76
2023/08/31 00:47:43;;;;;;;7.75;4.70;;;;;;;11.37;100.00;100755.78;5078175;28;20048;-76
2023/08/31 00:50:09;;;;;;;6.20;3.97;;;;;;;11.38;100.00;100753.94;5077357;28;20128;-76
2023/08/31 00:52:34;;;;;;;7.93;3.95;;;;;;;11.36;100.00;100743.44;5077004;28;20039;-76
2023/08/31 00:55:05;;;;;;;8.73;5.15;;;;;;;11.33;100.00;100749.19;5082596;28;20054;-76
2023/08/31 00:57:30;;;;;;;8.90;4.85;;;;;;;11.29;100.00;100745.31;5084398;28;20075;-76
2023/08/31 00:59:55;;;;;;;9.55;4.85;;;;;;;11.31;100.00;100742.41;5079823;28;20546;-76
2023/08/31 01:02:37;;;;;;;10.40;5.25;;;;;;;11.25;100.00;100732.56;5084744;28;20435;-76
2023/08/31 01:05:08;;;;;;;12.52;5.88;;;;;;;11.27;100.00;100735.84;5084041;28;20081;-76
2023/08/31 01:07:48;;;;;;;;;;;;;;;11.31;100.00;100739.75;5081503;28;20035;-76
2023/08/31 01:10:31;;;;;;;10.63;5.60;;;;;;;11.28;100.00;100748.16;5081806;28;19934;-76
2023/08/31 01:13:03;;;;;;;7.25;5.18;;;;;;;11.26;100.00;100740.34;5082321;28;20040;-76
2023/08/31 01:15:31;;;;;;;9.68;5.70;;;;;;;11.22;100.00;100736.47;5083392;28;20036;-76
2023/08/31 01:18:00;;;;;;;10.05;5.53;;;;;;;11.19;100.00;100736.88;5080538;28;20466;-76
2023/08/31 01:20:38;;;;;;;11.88;5.63;;;;;;;11.19;100.00;100737.69;5084062;28;20032;-75
2023/08/31 01:23:16;;;;;;;12.02;5.90;;;;;;;11.18;100.00;100738.69;5085941;28;20055;-76
2023/08/31 01:25:42;;;;;;;11.30;5.20;;;;;;;11.18;100.00;100746.69;5081147;28;20035;-76
2023/08/31 01:28:10;;;;;;;16.17;7.18;;;;;;;11.13;100.00;100746.53;5083349;28;20115;-76
2023/08/31 01:30:35;;;;;;;10.68;5.55;;;;;;;11.15;100.00;100759.66;5084983;28;20024;-76
2023/08/31 01:33:02;;;;;;;9.18;5.32;;;;;;;11.13;100.00;100756.34;5080265;28;20037;-76
2023/08/31 01:35:32;;;;;;;12.27;5.50;;;;;;;11.16;100.00;100761.28;5082323;28;20027;-77
2023/08/31 01:38:01;;;;;;;12.90;5.93;;;;;;;11.12;100.00;100768.88;5085692;28;20031;-77
2023/08/31 01:40:55;;;;;;;10.82;5.15;;;;;;;11.12;100.00;100757.38;5085447;28;20141;-76
2023/08/31 01:43:22;;;;;;;11.43;5.35;;;;;;;11.14;100.00;100769.50;5084964;28;20020;-76
2023/08/31 01:45:48;;;;;;;11.02;5.50;;;;;;;11.12;100.00;100766.22;5081689;28;20043;-76
2023/08/31 01:48:15;;;;;;;14.52;7.05;;;;;;;11.16;100.00;100769.28;5080802;28;20033;-77
2023/08/31 01:50:40;;;;;;;12.68;6.15;;;;;;;11.16;100.00;100770.13;5081575;28;20028;-76
2023/08/31 01:53:06;;;;;;;8.90;5.32;;;;;;;11.15;100.00;100770.31;5081223;28;20029;-76
2023/08/31 01:55:32;;;;;;;11.20;7.13;;;;;;;11.16;100.00;100770.13;5083513;28;20029;-76
2023/08/31 01:57:58;;;;;;;11.63;6.50;;;;;;;11.16;100.00;100772.81;5083017;28;20111;-76
2023/08/31 02:00:25;;;;;;;7.45;4.80;;;;;;;11.17;100.00;100777.09;5082806;28;20455;-76
2023/08/31 02:02:50;;;;;;;16.90;7.45;;;;;;;11.18;100.00;100765.38;5081264;28;20020;-76
2023/08/31 02:05:15;;;;;;;12.85;5.22;;;;;;;11.15;100.00;100756.97;5083665;28;20475;-76
2023/08/31 02:07:41;;;;;;;8.98;5.22;;;;;;;11.19;100.00;100764.38;5082177;28;20043;-76
2023/08/31 02:10:07;;;;;;;13.45;5.90;;;;;;;11.24;100.00;100766.44;5082281;28;20056;-76
2023/08/31 02:12:36;;;;;;;12.60;6.43;;;;;;;11.25;100.00;100765.41;5080492;28;20071;-76
2023/08/31 02:15:05;;;;;;;10.13;6.15;;;;;;;11.25;100.00;100759.25;5081210;28;20110;-76
2023/08/31 02:17:31;;;;;;;10.95;5.80;;;;;;;11.27;100.00;100760.69;5081801;28;20115;-76
2023/08/31 02:19:57;;;;;;;17.00;6.70;;;;;;;11.28;100.00;100762.34;5084286;28;20123;-76
2023/08/31 02:22:23;;;;;;;14.60;6.97;;;;;;;11.30;100.00;100754.94;5084726;28;20356;-76
2023/08/31 02:24:48;;;;;;;14.95;7.60;;;;;;;11.32;100.00;100752.91;5079818;28;20031;-76
2023/08/31 02:27:14;;;;;;;12.43;6.93;;;;;;;11.27;100.00;100746.53;5079701;28;20052;-76
2023/08/31 02:29:39;;;;;;;13.73;6.35;;;;;;;11.33;100.00;100753.72;5081780;28;20027;-76
2023/08/31 02:32:05;;;;;;;12.63;7.35;;;;;;;11.32;100.00;100749.41;5081445;28;20071;-76
2023/08/31 02:34:31;;;;;;;12.05;7.40;;;;;;;11.35;100.00;100752.50;5079585;28;20108;-76
2023/08/31 02:36:56;;;;;;;12.75;7.07;;;;;;;11.37;100.00;100752.28;5080966;28;20390;-76
2023/08/31 02:39:21;;;;;;;11.07;6.05;;;;;;;11.32;100.00;100744.88;5079852;28;20086;-76
2023/08/31 02:41:47;;;;;;;15.07;7.50;;;;;;;11.39;100.00;100767.06;5080613;28;20020;-76
2023/08/31 02:44:12;;;;;;;11.40;6.65;;;;;;;11.38;100.00;100756.59;5080154;28;20510;-76
2023/08/31 02:46:38;;;;;;;12.93;6.65;;;;;;;11.40;100.00;100752.69;5083234;28;20433;-76
2023/08/31 02:49:03;;;;;;;11.98;6.75;;;;;;;11.44;100.00;100757.63;5081359;28;20487;-76
2023/08/31 02:51:29;;;;;;;11.02;7.13;;;;;;;11.45;100.00;100761.94;5080208;28;20029;-76
2023/08/31 02:53:54;;;;;;;15.55;7.63;;;;;;;11.39;100.00;100745.69;5082246;28;20874;-76
2023/08/31 02:56:20;;;;;;;10.50;6.47;;;;;;;11.48;100.00;100767.72;5078720;28;20031;-76
2023/08/31 02:58:45;;;;;;;12.20;7.60;;;;;;;11.47;100.00;100765.22;5084942;28;20051;-77
2023/08/31 03:01:12;;;;;;;11.65;6.55;;;;;;;11.47;100.00;100770.56;5080630;28;20028;-76
2023/08/31 03:03:38;;;;;;;13.20;6.97;;;;;;;11.42;100.00;100760.50;5082095;28;20110;-76
2023/08/31 03:06:09;;;;;;;14.18;6.55;;;;;;;11.43;100.00;100761.34;5078508;28;20115;-77
2023/08/31 03:08:37;;;;;;;15.93;7.13;;;;;;;11.39;100.00;100767.06;5081136;28;20035;-76
2023/08/31 03:11:04;;;;;;;13.15;6.90;;;;;;;11.34;100.00;100768.69;5080780;28;20028;-76
2023/08/31 03:13:31;;;;;;;14.63;7.75;;;;;;;11.29;100.00;100753.31;5083591;28;20058;-77
2023/08/31 03:15:57;;;;;;;17.48;8.70;;;;;;;11.32;100.00;100766.25;5080122;28;20025;-76
2023/08/31 03:18:23;;;;;;;13.15;7.78;;;;;;;11.32;100.00;100752.91;5082484;28;20039;-76
2023/08/31 03:20:49;;;;;;;20.35;8.80;;;;;;;11.28;100.00;100754.31;5081983;28;20472;-76
2023/08/31 03:23:14;;;;;;;14.07;8.35;;;;;;;11.30;100.00;100767.47;5079667;28;20048;-76
2023/08/31 03:25:39;;;;;;;12.73;7.30;;;;;;;11.24;100.00;100766.44;5078279;28;20032;-76
2023/08/31 03:28:05;;;;;;;16.77;8.95;;;;;;;11.24;100.00;100768.28;5077664;28;20027;-76
2023/08/31 03:30:30;;;;;;;15.55;7.55;;;;;;;11.24;100.00;100768.28;5080672;28;20085;-76
2023/08/31 03:32:56;;;;;;;13.50;8.35;;;;;;;11.19;100.00;100764.38;5082060;28;20036;-76
2023/08/31 03:35:26;;;;;;;15.75;8.77;;;;;;;11.15;100.00;100762.31;5081010;28;20036;-77
2023/08/31 03:37:52;;;;;;;17.45;8.88;;;;;;;11.12;100.00;100771.53;5079859;28;20078;-76
2023/08/31 03:40:17;;;;;;;17.73;9.00;;;;;;;11.09;100.00;100773.81;5080700;28;20778;-76
2023/08/31 03:42:42;;;;;;;21.08;10.45;;;;;;;11.07;100.00;100771.31;5080326;28;20032;-76
2023/08/31 03:45:08;;;;;;;17.25;9.80;;;;;;;11.03;100.00;100761.25;5079223;28;20028;-76
2023/08/31 03:47:33;;;;;;;18.58;10.77;;;;;;;11.00;100.00;100756.31;5070556;28;20036;-76
2023/08/31 03:49:59;;;;;;;22.38;12.63;;;;;;;10.98;100.00;100761.88;5077271;28;20071;-76
2023/08/31 03:52:24;;;;;;;23.08;11.68;;;;;;;10.99;100.00;100770.69;5063001;28;20479;-76
2023/08/31 03:54:51;;;;;;;20.30;11.65;;;;;;;10.94;100.00;100763.28;5080478;28;20487;-76
2023/08/31 03:57:16;;;;;;;21.45;12.05;;;;;;;10.95;100.00;100771.09;5081964;28;20036;-76
2023/08/31 03:59:42;;;;;;;22.20;12.18;;;;;;;10.93;100.00;100773.16;5081323;28;20029;-76
2023/08/31 04:02:07;;;;;;;19.27;11.20;;;;;;;10.92;100.00;100773.34;5082475;28;20023;-75
2023/08/31 04:04:33;;;;;;;24.17;10.85;;;;;;;10.93;100.00;100775.81;5079755;28;20111;-76
2023/08/31 04:06:59;;;;;;;22.08;12.85;;;;;;;10.90;100.00;100770.88;5076450;28;20036;-76
2023/08/31 04:09:24;;;;;;;21.83;13.02;;;;;;;10.93;100.00;100781.16;5078277;28;20386;-76
2023/08/31 04:11:50;;;;;;;22.00;12.35;;;;;;;10.90;100.00;100770.88;5080786;28;20498;-76
2023/08/31 04:14:17;;;;;;;22.55;12.55;;;;;;;10.90;100.00;100772.75;5079367;28;20059;-76
2023/08/31 04:16:42;;;;;;;20.77;12.07;;;;;;;10.89;100.00;100781.75;5080910;28;20036;-76
2023/08/31 04:19:08;;;;;;;23.25;12.38;;;;;;;10.85;100.00;100784.00;5079578;28;20028;-76
2023/08/31 04:21:33;;;;;;;21.17;11.48;;;;;;;10.86;100.00;100785.63;5080964;28;20024;-76
2023/08/31 04:24:00;;;;;;;21.33;12.07;;;;;;;10.87;100.00;100787.31;5061821;28;20091;-76
2023/08/31 04:26:25;;;;;;;23.70;12.68;;;;;;;10.84;100.00;100786.84;5079457;28;20492;-77
2023/08/31 04:28:51;;;;;;;20.70;11.65;;;;;;;10.83;100.00;100794.03;5081589;28;20035;-76
2023/08/31 04:31:17;;;;;;;20.70;11.82;;;;;;;10.82;100.00;100795.06;5082209;28;20043;-76
2023/08/31 04:33:42;;;;;;;21.60;10.90;;;;;;;10.70;100.00;100778.81;5082022;28;20972;-77
2023/08/31 04:36:07;;;;;;;22.00;11.77;;;;;;;10.80;100.00;100796.31;5084266;28;20059;-76
2023/08/31 04:38:35;;;;;;;20.02;11.50;;;;;;;10.77;100.00;100786.84;5082385;28;20066;-77
2023/08/31 04:41:01;;;;;;;27.10;12.20;;;;;;;10.78;100.00;100795.66;5082413;28;20395;-76
2023/08/31 04:43:27;;;;;;;21.83;12.38;;;;;;;10.74;100.00;100798.75;5083650;28;20032;-76
2023/08/31 04:45:53;;;;;;;22.83;11.10;;;;;;;10.73;100.00;100793.59;5080090;28;20544;-76
2023/08/31 04:48:18;;;;;;;22.20;11.50;;;;;;;10.73;100.00;100796.25;5083977;28;20036;-76
2023/08/31 04:50:44;;;;;;;21.92;12.13;;;;;;;10.75;100.00;100803.03;5082701;28;20062;-76
2023/08/31 04:53:09;;;;;;;22.10;11.25;;;;;;;10.77;100.00;100799.34;5083346;28;20028;-76
2023/08/31 04:55:34;;;;;;;21.85;11.43;;;;;;;10.75;100.00;100805.72;5082043;28;20027;-76
2023/08/31 04:58:00;;;;;;;20.08;11.52;;;;;;;10.75;100.00;100805.72;5081968;28;20027;-76
2023/08/31 05:00:25;;;;;;;20.63;10.98;;;;;;;10.74;100.00;100804.06;5081844;28;20041;-76
2023/08/31 05:02:50;;;;;;;23.88;12.45;;;;;;;10.75;100.00;100819.06;5081944;28;20062;-76
2023/08/31 05:05:18;;;;;;;25.23;10.95;;;;;;;10.70;100.00;100808.16;5064051;28;20032;-77
2023/08/31 05:07:43;;;;;;;21.55;10.48;;;;;;;10.76;100.00;100827.88;5084156;28;20078;-76
2023/08/31 05:10:09;;;;;;;21.52;11.13;;;;;;;10.73;100.00;100817.59;5083268;28;20476;-76
2023/08/31 05:12:35;;;;;;;21.92;10.07;;;;;;;10.73;100.00;100820.28;5079647;28;20040;-76
2023/08/31 05:15:00;;;;;;;19.25;10.85;;;;;;;10.79;100.00;100829.31;5078982;28;20065;-76
2023/08/31 05:17:25;;;;;;;20.02;10.45;;;;;;;10.84;100.00;100827.69;5063340;28;20071;-76
2023/08/31 05:19:51;;;;;;;21.15;10.63;;;;;;;10.88;100.00;100828.13;5084832;28;20027;-76
2023/08/31 05:22:17;;;;;;;19.17;9.73;;;;;;;10.94;100.00;100832.66;5078536;28;20111;-76
2023/08/31 05:24:42;;;;;;;19.52;10.45;;;;;;;10.96;100.00;100839.44;5084617;28;20028;-76
2023/08/31 05:27:08;;;;;;;22.52;10.75;;;;;;;11.01;100.00;100849.53;5083158;28;20031;-76
2023/08/31 05:29:33;;;;;;;20.17;9.68;;;;;;;11.07;100.00;100853.25;5083542;28;20585;-76
2023/08/31 05:31:58;;;;;;;19.52;11.32;;;;;;;11.08;100.00;100854.88;5082048;28;20033;-76
2023/08/31 05:34:25;;;;;;;19.15;9.20;;;;;;;11.09;100.00;100860.03;5083945;28;20036;-76
2023/08/31 05:36:50;;;;;;;16.17;8.63;;;;;;;11.06;100.00;100857.78;5082695;28;20985;-76
2023/08/31 05:39:19;;;;;;;19.25;9.15;;;;;;;11.06;100.00;100856.97;5082022;28;20028;-76
2023/08/31 05:41:44;;;;;;;16.00;8.48;;;;;;;11.05;100.00;100861.44;5078593;28;20070;-76
2023/08/31 05:44:10;;;;;;;17.25;9.23;;;;;;;11.09;100.00;100869.91;5081449;28;20819;-76
2023/08/31 05:46:35;;;;;;;18.85;8.05;;;;;;;11.08;100.00;100869.06;5081878;28;20040;-76
2023/08/31 05:49:01;;;;;;;15.32;7.43;;;;;;;11.12;100.00;100869.50;5081984;28;20103;-76
2023/08/31 05:51:26;;;;;;;17.80;8.60;;;;;;;11.11;100.00;100866.00;5080974;28;20031;-76
2023/08/31 05:53:52;;;;;;;16.25;7.43;;;;;;;11.21;100.00;100864.78;5080697;28;20032;-76
2023/08/31 05:56:19;;;;;;;14.55;7.65;;;;;;;11.19;100.00;100857.81;5083039;28;20600;-76
2023/08/31 05:58:44;;;;;;;16.90;7.55;;;;;;;11.27;100.00;100869.34;5080899;28;20043;-76
2023/08/31 06:01:10;;;;;;;15.73;7.93;;;;;;;11.32;100.00;100862.38;5079604;28;20520;-77
2023/08/31 06:03:36;;;;;;;14.55;7.38;;;;;;;11.40;100.00;100864.84;5082582;28;20059;-76
2023/08/31 06:06:03;;;;;;;16.58;7.82;;;;;;;11.49;100.00;100864.66;5083497;28;20487;-76
2023/08/31 06:08:30;;;;;;;12.73;7.45;;;;;;;11.51;100.00;100866.09;5082580;28;20039;-76
2023/08/31 06:10:55;;;;;;;13.27;6.38;;;;;;;11.56;100.00;100871.66;5082923;28;20032;-76
2023/08/31 06:13:21;;;;;;;12.65;6.47;;;;;;;11.61;100.00;100873.75;5081654;28;20059;-76
2023/08/31 06:15:46;;;;;;;13.65;7.75;;;;;;;11.70;100.00;100885.06;5082899;28;20107;-76
2023/08/31 06:18:11;;;;;;;12.60;6.38;;;;;;;11.74;100.00;100878.28;5078659;28;20490;-76
2023/08/31 06:20:37;;;;;;;13.40;6.45;;;;;;;11.79;100.00;100882.00;5077075;28;20036;-76
2023/08/31 06:23:02;;;;;;;12.43;6.57;;;;;;;11.81;100.00;100881.78;5074662;28;20406;-77
2023/08/31 06:25:28;;;;;;;12.57;6.30;;;;;;;11.89;100.00;100891.47;5073039;28;20098;-70
2023/08/31 06:27:53;;;;;;;18.15;9.25;;;;;;;11.93;100.00;100898.88;5069526;28;20036;-71
2023/08/31 06:30:19;;;;;;;12.93;7.38;;;;;;;11.98;100.00;100906.28;5071017;28;20036;-72
2023/08/31 06:32:48;;;;;;;11.27;6.13;;;;;;;12.04;100.00;100903.63;5069481;28;20024;-71
2023/08/31 06:35:15;;;;;;;11.90;6.50;;;;;;;12.07;100.00;100892.50;5072358;28;20160;-75
2023/08/31 06:37:41;;;;;;;15.18;6.70;;;;;;;12.08;100.00;100904.03;5077850;28;20390;-74
2023/08/31 06:40:08;;;;;;;11.82;6.45;;;;;;;12.10;100.00;100901.97;5083525;28;20109;-75
2023/08/31 06:42:34;;;;;;;11.50;6.32;;;;;;;12.13;100.00;100896.22;5077759;28;20038;-75
2023/08/31 06:44:59;;;;;;;12.82;6.75;;;;;;;12.19;100.00;100894.59;5082754;28;20028;-75
2023/08/31 06:47:25;;;;;;;13.57;6.85;;;;;;;12.22;100.00;100892.31;5087060;28;20486;-75
2023/08/31 06:49:50;;;;;;;16.17;7.15;;;;;;;12.27;100.00;100895.19;5070558;28;20039;-75
2023/08/31 06:52:16;;;;;;;15.40;8.05;;;;;;;12.34;100.00;100907.72;5089205;28;20028;-74
2023/08/31 06:54:41;;;;;;;13.70;7.00;;;;;;;12.43;100.00;100911.84;5086950;28;20036;-74
2023/08/31 06:57:07;;;;;;;12.18;7.07;;;;;;;12.42;100.00;100910.22;5083924;28;20112;-74
2023/08/31 06:59:32;;;;;;;12.38;6.35;;;;;;;12.52;100.00;100910.59;5077793;28;20059;-72
2023/08/31 07:01:58;;;;;;;11.27;7.10;;;;;;;12.62;100.00;100910.16;5088786;28;20819;-72
2023/08/31 07:04:23;;;;;;;15.45;7.45;;;;;;;12.69;100.00;100922.50;5081501;28;20072;-72
2023/08/31 07:06:48;;;;;;;12.25;5.82;;;;;;;12.78;100.00;100924.94;5070240;28;20086;-72
2023/08/31 07:09:14;;;;;;;16.83;6.38;;;;;;;12.86;100.00;100928.25;5070434;28;20035;-72
2023/08/31 07:11:39;;;;;;;12.13;5.82;;;;;;;12.94;100.00;100921.81;5089329;28;20024;-72
2023/08/31 07:14:04;;;;;;;12.93;6.28;;;;;;;13.06;100.00;100932.72;5071160;28;20098;-72
2023/08/31 07:16:30;;;;;;;11.70;6.38;;;;;;;13.15;100.00;100934.09;5070119;28;20033;-72
2023/08/31 07:18:55;;;;;;;14.93;6.35;;;;;;;13.22;100.00;100934.91;5076255;28;20066;-73
2023/08/31 07:21:22;;;;;;;11.88;6.40;;;;;;;13.28;100.00;100942.16;5070027;28;20079;-72
2023/08/31 07:23:48;;;;;;;10.65;5.60;;;;;;;13.33;100.00;100934.28;5070566;28;20106;-72
2023/08/31 07:26:13;;;;;;;11.25;6.00;;;;;;;13.39;100.00;100932.63;5089267;28;20040;-71
2023/08/31 07:28:39;;;;;;;11.93;6.18;;;;;;;13.45;100.00;100934.44;5089258;28;20038;-71
2023/08/31 07:31:06;;;;;;;11.45;6.47;;;;;;;13.53;100.00;100942.22;5089171;28;20028;-72
2023/08/31 07:33:32;;;;;;;9.68;5.88;;;;;;;13.57;100.00;100937.25;5081066;28;20023;-74
2023/08/31 07:35:59;;;;;;;10.10;5.50;;;;;;;13.63;100.00;100935.59;5071922;28;20020;-71
2023/08/31 07:38:25;;;;;;;10.63;5.57;;;;;;;13.76;100.00;100947.06;5070414;28;20098;-69
2023/08/31 07:40:51;;;;;;;13.77;6.68;;;;;;;13.87;100.00;100942.03;5071821;28;20491;-71
2023/08/31 07:43:17;;;;;;;12.73;6.57;;;;;;;13.93;100.00;100936.63;5070664;28;20060;-70
2023/08/31 07:45:42;;;;;;;10.10;6.63;;;;;;;14.02;100.00;100940.69;5070783;28;20493;-71
2023/08/31 07:48:08;;;;;;;15.25;6.10;;;;;;;14.09;100.00;100939.81;5069894;28;20028;-74
2023/08/31 07:50:34;;;;;;;13.18;6.65;;;;;;;14.13;100.00;100941.84;5087453;28;20122;-72
2023/08/31 07:52:59;;;;;;;10.48;5.50;;;;;;;14.21;100.00;100941.59;5086763;28;20047;-72
2023/08/31 07:55:25;;;;;;;8.85;5.03;;;;;;;14.32;100.00;100941.91;5080738;28;20033;-72
2023/08/31 07:57:50;;;;;;;15.25;6.40;;;;;;;14.45;100.00;100948.00;5073809;28;20028;-73
2023/08/31 08:00:16;;;;;;;12.05;5.65;;;;;;;14.56;100.00;100940.28;5086549;28;20036;-74
2023/08/31 08:02:41;;;;;;;11.10;5.78;;;;;;;14.74;100.00;100953.75;5086593;28;20042;-71
2023/08/31 08:05:07;;;;;;;12.25;6.18;;;;;;;15.11;100.00;100953.75;5070353;28;20036;-71
2023/08/31 08:07:32;;;;;;;10.68;6.70;;;;;;;15.69;100.00;100944.38;5068100;28;20032;-71
2023/08/31 08:09:58;;;;;;;10.15;5.47;;;;;;;16.54;100.00;100944.09;5066171;28;20112;-72
2023/08/31 08:12:24;;;;;;;10.60;5.15;;;;;;;17.93;100.00;100962.09;5070323;28;20029;-73
2023/08/31 08:14:50;;;;;;;8.98;4.50;;;;;;;19.21;100.00;100960.53;5082915;28;20524;-73
2023/08/31 08:17:16;;;;;;;11.30;5.68;;;;;;;19.81;94.25;100970.44;5086411;28;20047;-74
2023/08/31 08:19:41;;;;;;;8.90;4.47;;;;;;;20.87;90.24;100970.75;5071185;28;20029;-74
2023/08/31 08:22:06;;;;;;;8.13;4.20;;;;;;;21.41;84.48;100970.50;5067692;28;20036;-71
2023/08/31 08:24:32;;;;;;;8.63;3.92;;;;;;;20.79;86.30;100961.22;5070430;28;20056;-74
2023/08/31 08:26:57;;;;;;;10.15;4.50;;;;;;;20.28;88.09;100967.09;5084101;28;20351;-71
2023/08/31 08:29:23;;;;;;;7.57;4.25;;;;;;;20.47;88.05;100978.31;5083197;28;20055;-71
2023/08/31 08:31:48;;;;;;;8.60;4.60;;;;;;;20.71;83.00;100970.66;5067857;28;20482;-72
2023/08/31 08:34:13;;;;;;;9.35;5.20;;;;;;;21.31;81.57;100981.28;5067508;28;20387;-71
2023/08/31 08:36:38;;;;;;;9.93;4.00;;;;;;;21.67;79.05;100968.69;5067461;28;20464;-70
2023/08/31 08:39:04;;;;;;;11.25;5.40;;;;;;;21.78;77.68;100972.22;5065875;28;20453;-71
2023/08/31 08:41:31;;;;;;;8.38;4.30;;;;;;;21.18;80.60;100974.44;5065758;28;20585;-72
2023/08/31 08:44:03;;;;;;;11.38;4.15;;;;;;;20.11;84.65;100972.59;5086494;28;20463;-72
2023/08/31 08:46:31;;;;;;;7.65;4.40;;;;;;;19.36;89.04;100974.25;5086885;28;20468;-71
2023/08/31 08:48:59;;;;;;;6.97;4.50;;;;;;;18.78;92.73;100981.03;5077732;28;20035;-71
2023/08/31 08:51:26;;;;;;;9.93;4.32;;;;;;;18.40;94.49;100985.28;5077434;28;20117;-71
2023/08/31 08:53:52;;;;;;;11.25;5.07;;;;;;;18.12;95.57;100981.56;5070121;28;20039;-72
2023/08/31 08:56:17;;;;;;;9.38;4.60;;;;;;;18.01;97.45;100977.06;5070581;28;20028;-74
2023/08/31 08:58:43;;;;;;;15.82;7.60;;;;;;;17.80;99.86;100986.69;5069899;28;20123;-74
2023/08/31 09:01:08;;;;;;;11.65;5.32;;;;;;;17.80;100.00;100973.19;5071800;28;20074;-73
2023/08/31 09:03:35;;;;;;;9.45;4.55;;;;;;;17.77;100.00;100976.34;5071007;28;20115;-76
2023/08/31 09:06:07;;;;;;;13.40;5.35;;;;;;;17.73;98.58;100973.28;5068103;28;20078;-75
2023/08/31 09:08:33;;;;;;;8.75;4.55;;;;;;;17.75;99.79;100976.56;5087470;28;20414;-76
2023/08/31 09:10:58;;;;;;;11.05;5.13;;;;;;;17.67;99.11;100968.88;5073984;28;20024;-76
2023/08/31 09:13:29;;;;;;;7.53;4.05;;;;;;;17.67;98.63;100976.97;5084552;28;20433;-75
2023/08/31 09:15:55;;;;;;;9.38;3.95;;;;;;;17.71;99.29;100974.59;5071396;28;20035;-75
2023/08/31 09:18:32;;;;;;;7.72;3.70;;;;;;;17.78;99.00;100972.56;5090512;28;20956;-76
2023/08/31 09:20:58;;;;;;;7.97;4.10;;;;;;;17.84;97.06;100978.91;5081819;28;20024;-76
2023/08/31 09:23:24;;;;;;;8.65;4.25;;;;;;;17.89;94.83;100982.53;5074936;28;20047;-75
2023/08/31 09:25:53;;;;;;;6.15;3.90;;;;;;;17.80;94.80;100980.47;5090122;28;20024;-75
2023/08/31 09:28:27;;;;;;;13.20;4.70;;;;;;;17.78;96.83;100975.25;5091576;28;20030;-75
2023/08/31 09:31:01;;;;;;;7.70;3.90;;;;;;;17.94;96.35;100985.31;5075153;28;20032;-76
2023/08/31 09:33:26;;;;;;;7.40;4.60;;;;;;;18.06;92.53;100984.44;5091613;28;20036;-74
2023/08/31 09:35:56;;;;;;;5.68;3.63;;;;;;;18.08;90.43;100985.03;5091444;28;20028;-75
2023/08/31 09:38:22;;;;;;;7.03;4.10;;;;;;;18.23;93.44;100985.25;5091489;28;20024;-75
2023/08/31 09:40:47;;;;;;;8.40;3.92;;;;;;;18.24;90.58;100989.63;5081555;28;20033;-76
2023/08/31 09:43:20;;;;;;;8.00;4.97;;;;;;;18.23;92.07;100985.25;5091232;28;20439;-75
2023/08/31 09:45:46;;;;;;;6.75;4.28;;;;;;;18.02;92.42;100985.97;5091417;28;20024;-75
2023/08/31 09:48:14;;;;;;;8.93;4.78;;;;;;;18.03;89.17;100990.34;5080018;28;20040;-75
2023/08/31 09:50:42;;;;;;;9.02;5.05;;;;;;;18.00;91.36;100986.25;5091187;28;20499;-75
2023/08/31 09:53:10;;;;;;;8.55;5.00;;;;;;;18.11;94.13;100979.13;5089648;28;20523;-75
2023/08/31 09:55:36;;;;;;;12.07;4.78;;;;;;;18.35;93.33;100996.81;5091022;28;20138;-75
2023/08/31 09:58:02;;;;;;;9.40;4.90;;;;;;;18.30;92.47;100999.44;5083707;28;20051;-75
2023/08/31 10:00:31;;;;;;;12.68;4.38;;;;;;;18.13;89.99;100994.03;5072834;28;20146;-75
2023/08/31 10:03:01;;;;;;;7.65;3.53;;;;;;;18.03;89.91;100991.16;5089983;28;20035;-79
2023/08/31 10:05:26;;;;;;;9.70;4.53;;;;;;;17.94;90.64;100990.69;5086500;28;20039;-75
2023/08/31 10:07:52;;;;;;;15.77;3.22;;;;;;;17.99;89.89;100994.56;5090065;28;20032;-75
2023/08/31 10:10:18;;;;;;;8.57;3.78;;;;;;;18.27;91.17;100999.13;5080283;28;20028;-75
2023/08/31 10:12:45;;;;;;;10.05;4.22;;;;;;;18.58;89.77;100997.72;5088072;28;20341;-75
2023/08/31 10:15:12;;;;;;;5.80;3.92;;;;;;;18.52;87.90;100996.00;5074082;28;20033;-75
2023/08/31 10:17:39;;;;;;;8.23;3.95;;;;;;;18.63;90.13;100997.81;5090480;28;20100;-75
2023/08/31 10:20:08;;;;;;;9.35;4.40;;;;;;;18.59;88.51;101002.88;5083280;28;20035;-74
2023/08/31 10:22:33;;;;;;;10.15;4.10;;;;;;;18.39;86.11;100997.97;5072061;28;20040;-74
2023/08/31 10:25:05;;;;;;;5.93;3.55;;;;;;;18.38;87.77;100999.03;5070810;28;20028;-74
2023/08/31 10:27:41;;;;;;;8.82;4.20;;;;;;;18.55;86.78;101000.94;5087691;28;20088;-75
2023/08/31 10:30:28;;;;;;;8.80;4.50;;;;;;;18.76;87.41;101002.91;5080830;28;20032;-74
2023/08/31 10:33:09;;;;;;;9.88;4.57;;;;;;;18.83;86.50;100989.22;5072973;28;20028;-71
2023/08/31 10:35:47;;;;;;;8.60;3.72;;;;;;;18.77;80.42;100982.09;5070730;28;20024;-71
2023/08/31 10:38:15;;;;;;;8.88;4.13;;;;;;;18.74;84.34;100977.97;5070309;28;20074;-75
2023/08/31 10:40:41;;;;;;;5.43;3.80;;;;;;;18.73;80.39;100973.66;5070155;28;20016;-74
2023/08/31 10:43:16;;;;;;;5.63;3.28;;;;;;;18.79;83.21;100967.28;5070317;28;20474;-73
2023/08/31 10:45:45;;;;;;;10.23;4.53;;;;;;;19.03;85.06;100972.47;5068847;28;20028;-73
2023/08/31 10:48:10;;;;;;;6.90;4.55;;;;;;;19.11;81.05;100966.63;5069355;28;20020;-73
2023/08/31 10:50:42;;;;;;;6.00;3.50;;;;;;;19.26;82.71;100983.03;5071396;28;20043;-78
2023/08/31 10:53:09;;;;;;;7.28;3.50;;;;;;;19.34;79.54;100989.09;5070800;28;20077;-77
2023/08/31 10:55:34;;;;;;;5.50;3.83;;;;;;;19.33;79.22;100979.31;5070337;28;20043;-72
2023/08/31 10:57:59;;;;;;;7.93;3.13;;;;;;;19.39;78.10;100987.25;5070917;28;20024;-73
2023/08/31 11:00:50;;;;;;;7.60;3.35;;;;;;;19.35;78.83;100980.72;5070790;28;20537;-73
2023/08/31 11:03:15;;;;;;;6.45;3.47;;;;;;;19.37;78.49;100975.88;5070569;28;20456;-74
2023/08/31 11:05:52;;;;;;;7.03;3.55;;;;;;;19.51;79.94;100961.97;5069880;28;20064;-73
2023/08/31 11:08:24;;;;;;;9.20;4.03;;;;;;;19.62;76.13;100977.22;5073294;28;20467;-77
2023/08/31 11:10:50;;;;;;;6.57;2.95;;;;;;;19.46;73.50;100973.53;5085660;28;20032;-73